createdAt,value
2023-03-29T00:03:14.829Z,10.70
2023-03-29T00:08:18.574Z,8.30
2023-03-29T00:13:23.834Z,5.70
2023-03-29T00:18:26.582Z,8.60
2023-03-29T00:23:29.398Z,6.50
2023-03-29T00:28:32.203Z,7.40
2023-03-29T00:33:35.825Z,8.80
2023-03-29T00:38:40.048Z,5.60
2023-03-29T00:44:00.393Z,6.90
2023-03-29T00:49:13.978Z,9.70
2023-03-29T00:54:18.815Z,6.10
2023-03-29T00:59:32.858Z,5.20
2023-03-29T01:05:05.667Z,5.90
2023-03-29T01:10:22.082Z,4.60
2023-03-29T01:15:28.174Z,5.90
2023-03-29T01:21:15.350Z,8.50
2023-03-29T01:26:27.181Z,7.80
2023-03-29T01:31:41.686Z,6.90
2023-03-29T01:36:58.895Z,5.40
2023-03-29T01:42:29.875Z,6.10
2023-03-29T01:48:12.459Z,4.30
2023-03-29T01:53:33.398Z,5.30
2023-03-29T01:58:44.821Z,5.10
2023-03-29T02:03:54.691Z,5.20
2023-03-29T02:08:57.955Z,5.00
2023-03-29T02:14:01.319Z,5.90
2023-03-29T02:19:05.427Z,5.40
2023-03-29T02:24:13.467Z,5.00
2023-03-29T02:29:17.226Z,5.90
2023-03-29T02:34:37.702Z,8.90
2023-03-29T02:39:41.177Z,6.30
2023-03-29T02:44:47.416Z,5.70
2023-03-29T02:49:50.985Z,7.20
2023-03-29T02:54:55.885Z,8.20
2023-03-29T03:00:00.057Z,5.80
2023-03-29T03:05:04.023Z,5.80
2023-03-29T03:10:10.157Z,5.60
2023-03-29T03:15:13.580Z,5.40
2023-03-29T03:20:16.588Z,6.20
2023-03-29T03:25:21.276Z,10.90
2023-03-29T03:30:24.121Z,8.00
2023-03-29T03:35:26.952Z,9.10
2023-03-29T03:40:29.888Z,7.00
2023-03-29T03:45:32.903Z,7.50
2023-03-29T03:50:35.756Z,5.20
2023-03-29T03:55:39.672Z,2.80
2023-03-29T04:00:42.756Z,9.70
2023-03-29T04:05:47.476Z,7.90
2023-03-29T04:10:55.715Z,14.20
2023-03-29T04:16:00.223Z,10.40
2023-03-29T04:21:06.673Z,10.20
2023-03-29T04:26:09.746Z,12.60
2023-03-29T04:31:17.176Z,28.70
2023-03-29T04:36:20.628Z,13.30
2023-03-29T04:41:23.810Z,11.00
2023-03-29T04:46:26.905Z,17.50
2023-03-29T04:51:29.937Z,18.30
2023-03-29T04:56:32.924Z,16.00
2023-03-29T05:01:36.145Z,11.20
2023-03-29T05:06:39.054Z,8.70
2023-03-29T05:11:41.820Z,11.60
2023-03-29T05:16:44.625Z,13.90
2023-03-29T05:21:50.178Z,11.40
2023-03-29T05:26:53.007Z,10.50
2023-03-29T05:31:55.822Z,15.90
2023-03-29T05:36:59.256Z,9.40
2023-03-29T05:42:01.967Z,12.70
2023-03-29T05:47:04.964Z,13.00
2023-03-29T05:52:07.740Z,13.60
2023-03-29T05:57:10.630Z,15.70
2023-03-29T06:02:16.055Z,12.80
2023-03-29T06:07:19.102Z,12.30
2023-03-29T06:12:21.882Z,13.80
2023-03-29T06:17:24.870Z,8.30
2023-03-29T06:22:28.323Z,7.40
2023-03-29T06:27:31.968Z,9.00
2023-03-29T06:32:35.865Z,9.90
2023-03-29T06:37:41.205Z,8.40
2023-03-29T06:42:45.188Z,8.30
2023-03-29T06:47:48.050Z,7.60
2023-03-29T06:52:53.058Z,5.90
2023-03-29T06:58:02.732Z,6.80
2023-03-29T07:03:13.241Z,9.60
2023-03-29T07:08:31.427Z,7.90
2023-03-29T07:13:34.945Z,9.10
2023-03-29T07:18:43.064Z,10.50
2023-03-29T07:23:46.173Z,13.70
2023-03-29T07:29:28.860Z,10.20
2023-03-29T07:34:32.750Z,10.20
2023-03-29T07:39:40.358Z,11.50
2023-03-29T07:44:44.720Z,10.60
2023-03-29T07:49:48.208Z,9.90
2023-03-29T07:54:51.096Z,7.80
2023-03-29T07:59:54.452Z,7.50
2023-03-29T08:04:57.343Z,8.60
2023-03-29T08:10:00.154Z,6.20
2023-03-29T08:15:05.666Z,9.20
2023-03-29T08:20:12.746Z,6.00
2023-03-29T08:25:17.823Z,6.30
2023-03-29T08:30:21.372Z,12.10
2023-03-29T08:35:24.356Z,8.50
2023-03-29T08:40:30.271Z,7.60
2023-03-29T08:46:35.134Z,7.30
2023-03-29T08:51:49.333Z,6.10
2023-03-29T08:56:54.400Z,5.40
2023-03-29T09:02:00.504Z,7.90
2023-03-29T09:07:09.809Z,7.30
2023-03-29T09:12:35.841Z,5.30
2023-03-29T09:17:55.699Z,8.60
2023-03-29T09:23:42.626Z,9.00
2023-03-29T09:29:33.688Z,6.90
2023-03-29T09:35:05.228Z,9.60
2023-03-29T09:40:25.383Z,12.90
2023-03-29T09:45:28.424Z,8.80
2023-03-29T09:50:39.196Z,5.90
2023-03-29T09:55:44.843Z,9.20
2023-03-29T10:00:49.107Z,6.90
2023-03-29T10:05:55.861Z,10.00
2023-03-29T10:11:03.914Z,7.00
2023-03-29T10:16:17.227Z,8.00
2023-03-29T10:21:22.242Z,9.00
2023-03-29T10:26:32.850Z,9.10
2023-03-29T10:31:41.660Z,6.70
2023-03-29T10:36:57.541Z,9.20
2023-03-29T10:42:04.186Z,9.20
2023-03-29T10:47:20.347Z,12.30
2023-03-29T10:52:26.519Z,6.60
2023-03-29T10:57:58.989Z,7.00
2023-03-29T11:03:04.646Z,9.00
2023-03-29T11:08:29.675Z,4.80
2023-03-29T11:13:59.998Z,8.60
2023-03-29T11:19:38.622Z,13.40
2023-03-29T11:25:37.350Z,12.70
2023-03-29T11:31:27.066Z,9.80
2023-03-29T11:37:03.036Z,9.50
2023-03-29T11:42:26.851Z,6.10
2023-03-29T11:47:37.229Z,8.50
2023-03-29T11:52:50.662Z,9.20
2023-03-29T11:58:05.536Z,7.40
2023-03-29T12:03:37.327Z,12.20
2023-03-29T12:08:56.823Z,11.80
2023-03-29T12:14:17.981Z,10.20
2023-03-29T12:19:39.655Z,12.10
2023-03-29T12:24:48.550Z,9.40
2023-03-29T12:30:44.021Z,13.20
2023-03-29T12:36:28.540Z,11.20
2023-03-29T12:41:37.853Z,7.50
2023-03-29T12:46:41.447Z,9.10
2023-03-29T12:51:44.616Z,9.30
2023-03-29T12:56:56.357Z,9.20
2023-03-29T13:02:19.536Z,8.50
2023-03-29T13:07:22.650Z,9.80
2023-03-29T13:12:35.127Z,12.20
2023-03-29T13:18:04.019Z,8.60
2023-03-29T13:23:31.855Z,6.80
2023-03-29T13:28:52.899Z,11.10
2023-03-29T13:34:27.501Z,8.90
2023-03-29T13:39:36.646Z,7.30
2023-03-29T13:44:46.264Z,12.80
2023-03-29T13:50:00.425Z,7.10
2023-03-29T13:55:17.942Z,10.40
2023-03-29T14:00:32.296Z,5.30
2023-03-29T14:05:40.393Z,8.60
2023-03-29T14:10:45.984Z,7.00
2023-03-29T14:15:54.808Z,13.00
2023-03-29T14:21:01.734Z,8.50
2023-03-29T14:26:10.695Z,9.80
2023-03-29T14:31:36.777Z,6.60
2023-03-29T14:36:40.648Z,12.40
2023-03-29T14:41:57.157Z,15.50
2023-03-29T14:47:02.991Z,15.20
2023-03-29T14:52:06.716Z,7.20
2023-03-29T14:57:18.608Z,9.10
2023-03-29T15:02:26.550Z,13.20
2023-03-29T15:07:31.728Z,5.40
2023-03-29T15:12:38.052Z,5.80
2023-03-29T15:17:51.715Z,6.90
2023-03-29T15:23:04.557Z,6.80
2023-03-29T15:28:29.747Z,10.70
2023-03-29T15:33:37.467Z,8.90
2023-03-29T15:38:45.086Z,9.80
2023-03-29T15:43:48.335Z,7.30
2023-03-29T15:48:51.278Z,8.50
2023-03-29T15:53:54.056Z,6.80
2023-03-29T15:58:56.818Z,8.10
2023-03-29T16:04:21.478Z,6.20
2023-03-29T16:09:25.784Z,8.00
2023-03-29T16:14:31.502Z,7.40
2023-03-29T16:19:35.273Z,6.80
2023-03-29T16:24:38.475Z,9.50
2023-03-29T16:29:44.095Z,10.90
2023-03-29T16:34:47.339Z,10.00
2023-03-29T16:39:50.119Z,10.50
2023-03-29T16:44:54.594Z,10.80
2023-03-29T16:49:57.615Z,9.10
2023-03-29T16:55:00.364Z,9.30
2023-03-29T17:00:06.952Z,10.70
2023-03-29T17:05:12.367Z,12.90
2023-03-29T17:10:15.682Z,10.40
2023-03-29T17:15:18.501Z,8.60
2023-03-29T17:20:21.553Z,11.60
2023-03-29T17:25:25.467Z,13.20
2023-03-29T17:30:28.509Z,11.10
2023-03-29T17:35:32.227Z,16.00
2023-03-29T17:40:35.635Z,19.10
2023-03-29T17:45:38.712Z,16.20
2023-03-29T17:50:41.521Z,16.60
2023-03-29T17:55:44.586Z,13.30
2023-03-29T18:00:48.118Z,8.40
2023-03-29T18:05:52.091Z,10.20
2023-03-29T18:10:55.023Z,13.40
2023-03-29T18:15:57.779Z,18.80
2023-03-29T18:21:01.556Z,18.80
2023-03-29T18:26:06.668Z,19.50
2023-03-29T18:31:11.099Z,19.90
2023-03-29T18:36:17.238Z,15.30
2023-03-29T18:41:22.081Z,17.70
2023-03-29T18:46:30.407Z,14.00
2023-03-29T18:51:56.005Z,17.20
2023-03-29T18:57:00.447Z,18.80
2023-03-29T19:02:24.496Z,17.20
2023-03-29T19:07:47.727Z,17.00
2023-03-29T19:13:14.985Z,20.20
2023-03-29T19:18:20.535Z,13.60
2023-03-29T19:23:27.589Z,14.20
2023-03-29T19:28:32.691Z,14.30
2023-03-29T19:33:35.527Z,15.60
2023-03-29T19:38:38.288Z,14.10
2023-03-29T19:44:01.017Z,28.50
2023-03-29T19:49:06.255Z,27.60
2023-03-29T19:54:12.726Z,18.10
2023-03-29T19:59:17.720Z,16.70
2023-03-29T20:04:32.416Z,19.20
2023-03-29T20:09:38.063Z,21.20
2023-03-29T20:14:43.316Z,14.70
2023-03-29T20:20:10.231Z,16.90
2023-03-29T20:25:14.052Z,16.80
2023-03-29T20:30:18.208Z,16.70
2023-03-29T20:35:24.515Z,16.10
2023-03-29T20:40:29.977Z,15.80
2023-03-29T20:45:57.254Z,24.30
2023-03-29T20:51:03.196Z,19.30
2023-03-29T20:56:06.713Z,13.00
2023-03-29T21:01:12.397Z,11.80
2023-03-29T21:06:16.273Z,8.80
2023-03-29T21:11:21.005Z,8.50
2023-03-29T21:16:25.433Z,13.60
2023-03-29T21:21:29.721Z,7.70
2023-03-29T21:26:32.438Z,6.50
2023-03-29T21:31:35.539Z,9.30
2023-03-29T21:36:39.805Z,12.40
2023-03-29T21:41:42.986Z,10.90
2023-03-29T21:46:47.470Z,14.20
2023-03-29T21:51:50.404Z,12.20
2023-03-29T21:56:53.238Z,11.20
2023-03-29T22:01:56.095Z,9.40
2023-03-29T22:06:59.102Z,10.10
2023-03-29T22:12:05.097Z,12.80
2023-03-29T22:17:07.917Z,11.80
2023-03-29T22:22:14.287Z,7.30
2023-03-29T22:27:17.051Z,13.00
2023-03-29T22:32:19.859Z,10.50
2023-03-29T22:37:22.788Z,11.10
2023-03-29T22:42:25.772Z,7.60
2023-03-29T22:47:28.576Z,10.40
2023-03-29T22:52:31.473Z,8.00
2023-03-29T22:57:34.203Z,8.60
2023-03-29T23:02:37.273Z,12.60
2023-03-29T23:07:40.500Z,11.20
2023-03-29T23:12:43.255Z,10.30
2023-03-29T23:17:46.310Z,6.60
2023-03-29T23:22:49.165Z,7.50
2023-03-29T23:27:53.894Z,12.50
2023-03-29T23:32:58.265Z,11.30
2023-03-29T23:38:01.078Z,8.10
2023-03-29T23:43:04.141Z,13.70
2023-03-29T23:48:07.698Z,10.20
2023-03-29T23:53:10.692Z,11.40
2023-03-29T23:58:13.632Z,12.70
